createdAt,value
2022-11-28T00:02:17.985Z,7.82
2022-11-28T00:04:44.544Z,7.88
2022-11-28T00:07:11.945Z,9.32
2022-11-28T00:09:38.497Z,6.30
2022-11-28T00:12:04.941Z,8.38
2022-11-28T00:14:31.241Z,6.45
2022-11-28T00:16:57.546Z,9.20
2022-11-28T00:19:23.837Z,5.95
2022-11-28T00:21:50.168Z,7.22
2022-11-28T00:24:16.475Z,6.97
2022-11-28T00:26:42.860Z,4.25
2022-11-28T00:29:10.446Z,11.60
2022-11-28T00:31:42.339Z,8.18
2022-11-28T00:34:11.051Z,8.90
2022-11-28T00:36:37.343Z,9.32
2022-11-28T00:39:04.843Z,5.80
2022-11-28T00:41:33.732Z,7.47
2022-11-28T00:44:00.161Z,10.27
2022-11-28T00:46:27.199Z,9.38
2022-11-28T00:48:53.825Z,8.43
2022-11-28T00:51:23.905Z,7.35
2022-11-28T00:53:52.057Z,8.75
2022-11-28T00:56:21.570Z,7.80
2022-11-28T00:58:49.528Z,6.93
2022-11-28T01:01:21.583Z,8.18
2022-11-28T01:03:49.543Z,10.52
2022-11-28T01:06:26.768Z,6.70
2022-11-28T01:08:53.630Z,7.47
2022-11-28T01:11:21.383Z,7.93
2022-11-28T01:13:48.169Z,6.07
2022-11-28T01:16:15.315Z,6.65
2022-11-28T01:18:41.882Z,6.82
2022-11-28T01:21:08.547Z,8.15
2022-11-28T01:23:35.286Z,9.15
2022-11-28T01:26:02.283Z,7.43
2022-11-28T01:28:29.426Z,7.20
2022-11-28T01:30:55.744Z,7.03
2022-11-28T01:33:22.053Z,9.70
2022-11-28T01:35:56.496Z,6.95
2022-11-28T01:38:22.993Z,7.45
2022-11-28T01:40:49.765Z,11.43
2022-11-28T01:43:16.088Z,7.07
2022-11-28T01:45:42.478Z,8.38
2022-11-28T01:48:11.631Z,9.90
2022-11-28T01:50:38.666Z,5.38
2022-11-28T01:53:09.014Z,8.77
2022-11-28T01:55:42.014Z,7.40
2022-11-28T01:58:11.312Z,7.63
2022-11-28T02:00:37.685Z,6.97
2022-11-28T02:03:12.925Z,9.77
2022-11-28T02:05:39.874Z,6.63
2022-11-28T02:08:07.895Z,7.85
2022-11-28T02:11:00.595Z,6.28
2022-11-28T02:13:45.256Z,9.60
2022-11-28T02:16:17.588Z,8.30
2022-11-28T02:18:54.332Z,6.55
2022-11-28T02:21:40.920Z,10.15
2022-11-28T02:24:35.416Z,6.95
2022-11-28T02:27:29.449Z,7.95
2022-11-28T02:30:06.400Z,8.00
2022-11-28T02:32:53.345Z,8.48
2022-11-28T02:35:26.461Z,7.18
2022-11-28T02:38:11.313Z,7.50
2022-11-28T02:41:07.969Z,9.13
2022-11-28T02:43:42.459Z,9.23
2022-11-28T02:46:34.392Z,8.10
2022-11-28T02:49:30.923Z,9.32
2022-11-28T02:52:02.010Z,7.18
2022-11-28T02:56:56.117Z,7.38
2022-11-28T02:59:32.468Z,12.35
2022-11-28T03:02:00.668Z,7.47
2022-11-28T03:04:40.305Z,9.93
2022-11-28T03:07:45.709Z,9.38
2022-11-28T03:10:33.668Z,7.70
2022-11-28T03:13:18.304Z,10.30
2022-11-28T03:16:10.231Z,11.10
2022-11-28T03:18:45.593Z,9.60
2022-11-28T03:21:16.773Z,11.40
2022-11-28T03:26:36.968Z,10.60
2022-11-28T03:29:12.138Z,9.75
2022-11-28T03:31:45.190Z,12.13
2022-11-28T03:34:15.548Z,10.55
2022-11-28T03:36:47.631Z,11.90
2022-11-28T03:39:18.131Z,12.02
2022-11-28T03:42:09.912Z,8.48
2022-11-28T03:44:45.514Z,11.77
2022-11-28T03:47:12.167Z,12.77
2022-11-28T03:49:43.567Z,13.35
2022-11-28T03:52:18.788Z,12.32
2022-11-28T03:54:56.762Z,11.15
2022-11-28T03:57:34.186Z,9.35
2022-11-28T04:00:07.154Z,9.00
2022-11-28T04:03:14.995Z,10.27
2022-11-28T04:05:53.925Z,8.82
2022-11-28T04:08:27.759Z,12.23
2022-11-28T04:11:05.830Z,9.20
2022-11-28T04:13:38.337Z,10.60
2022-11-28T04:16:09.923Z,9.88
2022-11-28T04:19:01.780Z,10.18
2022-11-28T04:21:34.696Z,10.18
2022-11-28T04:24:09.180Z,11.55
2022-11-28T04:26:38.572Z,9.32
2022-11-28T04:29:12.472Z,9.80
2022-11-28T04:31:40.869Z,11.15
2022-11-28T04:34:10.779Z,9.90
2022-11-28T04:36:40.120Z,7.32
2022-11-28T04:39:10.135Z,13.93
2022-11-28T04:41:42.638Z,9.38
2022-11-28T04:44:15.826Z,8.25
2022-11-28T04:46:50.975Z,9.95
2022-11-28T04:49:17.467Z,9.30
2022-11-28T04:52:10.224Z,9.65
2022-11-28T04:55:03.948Z,13.93
2022-11-28T04:57:35.186Z,10.80
2022-11-28T05:00:04.464Z,14.55
2022-11-28T05:02:32.287Z,10.27
2022-11-28T05:04:59.549Z,12.15
2022-11-28T05:07:25.891Z,9.85
2022-11-28T05:09:52.353Z,11.18
2022-11-28T05:12:18.724Z,11.73
2022-11-28T05:14:45.092Z,13.27
2022-11-28T05:17:13.315Z,9.13
2022-11-28T05:19:39.680Z,9.95
2022-11-28T05:22:06.355Z,12.15
2022-11-28T05:24:32.663Z,11.88
2022-11-28T05:26:59.026Z,12.25
2022-11-28T05:29:25.589Z,12.63
2022-11-28T05:31:52.175Z,13.13
2022-11-28T05:34:18.543Z,15.05
2022-11-28T05:36:44.837Z,10.75
2022-11-28T05:39:11.124Z,9.60
2022-11-28T05:41:37.567Z,10.95
2022-11-28T05:44:04.047Z,12.50
2022-11-28T05:46:30.420Z,8.30
2022-11-28T05:48:57.237Z,11.40
2022-11-28T05:51:23.549Z,8.13
2022-11-28T05:53:50.261Z,10.90
2022-11-28T05:56:18.877Z,11.95
2022-11-28T05:58:45.702Z,11.07
2022-11-28T06:01:15.592Z,10.35
2022-11-28T06:03:42.606Z,11.23
2022-11-28T06:06:20.587Z,7.85
2022-11-28T06:08:48.687Z,8.25
2022-11-28T06:11:16.278Z,11.20
2022-11-28T06:13:44.540Z,11.23
2022-11-28T06:16:14.054Z,8.77
2022-11-28T06:18:40.913Z,9.35
2022-11-28T06:21:08.907Z,10.57
2022-11-28T06:23:36.991Z,10.32
2022-11-28T06:26:12.218Z,9.70
2022-11-28T06:28:39.191Z,8.60
2022-11-28T06:31:10.943Z,9.88
2022-11-28T06:33:37.349Z,8.82
2022-11-28T06:36:05.777Z,10.48
2022-11-28T06:38:32.917Z,10.23
2022-11-28T06:41:01.506Z,8.32
2022-11-28T06:43:28.269Z,9.88
2022-11-28T06:45:54.668Z,9.32
2022-11-28T06:48:21.517Z,10.65
2022-11-28T06:50:48.302Z,11.40
2022-11-28T06:53:14.613Z,10.52
2022-11-28T06:55:40.996Z,10.95
2022-11-28T06:58:07.344Z,13.00
2022-11-28T07:00:34.340Z,10.20
2022-11-28T07:03:00.687Z,12.82
2022-11-28T07:05:28.402Z,11.90
2022-11-28T07:07:54.962Z,10.98
2022-11-28T07:10:22.267Z,12.07
2022-11-28T07:12:53.923Z,10.20
2022-11-28T07:15:20.715Z,8.77
2022-11-28T07:17:47.084Z,11.52
2022-11-28T07:20:13.890Z,12.40
2022-11-28T07:22:40.330Z,11.55
2022-11-28T07:25:07.291Z,13.10
2022-11-28T07:27:33.584Z,11.88
2022-11-28T07:29:59.872Z,11.23
2022-11-28T07:32:26.206Z,11.88
2022-11-28T07:34:52.608Z,13.57
2022-11-28T07:37:18.964Z,14.20
2022-11-28T07:39:45.564Z,11.05
2022-11-28T07:42:12.186Z,13.13
2022-11-28T07:44:38.505Z,11.90
2022-11-28T07:47:04.997Z,11.02
2022-11-28T07:49:31.428Z,12.93
2022-11-28T07:51:57.951Z,11.32
2022-11-28T07:54:24.440Z,12.50
2022-11-28T07:57:12.801Z,12.10
2022-11-28T07:59:37.097Z,11.68
2022-11-28T08:02:04.105Z,13.40
2022-11-28T08:04:30.568Z,10.35
2022-11-28T08:06:56.936Z,16.65
2022-11-28T08:09:23.221Z,35.83
2022-11-28T08:11:52.677Z,13.30
2022-11-28T08:14:19.825Z,12.55
2022-11-28T08:16:46.368Z,11.85
2022-11-28T08:19:13.092Z,13.95
2022-11-28T08:21:39.505Z,11.63
2022-11-28T08:24:07.899Z,11.10
2022-11-28T08:26:35.141Z,11.70
2022-11-28T08:29:02.980Z,13.73
2022-11-28T08:31:35.204Z,14.73
2022-11-28T08:34:04.745Z,14.25
2022-11-28T08:36:31.672Z,14.07
2022-11-28T08:39:30.824Z,12.77
2022-11-28T08:41:47.517Z,13.27
2022-11-28T08:44:13.848Z,12.63
2022-11-28T08:46:40.144Z,13.90
2022-11-28T08:49:07.374Z,13.30
2022-11-28T08:51:33.711Z,15.75
2022-11-28T08:54:00.260Z,13.15
2022-11-28T08:56:27.088Z,11.48
2022-11-28T08:58:54.503Z,12.93
2022-11-28T09:01:23.504Z,14.25
2022-11-28T09:03:50.473Z,11.48
2022-11-28T09:06:17.874Z,13.95
2022-11-28T09:08:44.860Z,12.70
2022-11-28T09:11:13.768Z,14.40
2022-11-28T09:13:40.085Z,13.73
2022-11-28T09:16:07.251Z,19.15
2022-11-28T09:18:33.676Z,14.93
2022-11-28T09:21:09.060Z,18.83
2022-11-28T09:23:36.920Z,15.00
2022-11-28T09:26:11.578Z,11.85
2022-11-28T09:28:38.189Z,14.23
2022-11-28T09:31:06.074Z,9.00
2022-11-28T09:33:32.952Z,13.98
2022-11-28T09:36:03.575Z,12.20
2022-11-28T09:38:29.906Z,13.82
2022-11-28T09:40:56.295Z,10.27
2022-11-28T09:43:38.238Z,11.32
2022-11-28T09:46:07.835Z,15.23
2022-11-28T09:48:50.998Z,12.93
2022-11-28T09:51:31.053Z,9.93
2022-11-28T09:54:11.083Z,11.68
2022-11-28T09:56:37.456Z,9.75
2022-11-28T09:59:11.156Z,9.48
2022-11-28T10:02:00.413Z,10.10
2022-11-28T10:04:50.943Z,9.50
2022-11-28T10:07:26.540Z,10.45
2022-11-28T10:10:08.430Z,9.68
2022-11-28T10:12:49.781Z,11.57
2022-11-28T10:15:54.546Z,8.52
2022-11-28T10:18:34.894Z,9.38
2022-11-28T10:21:10.172Z,7.80
2022-11-28T10:23:44.819Z,9.57
2022-11-28T10:26:28.850Z,9.57
2022-11-28T10:29:01.003Z,11.55
2022-11-28T10:31:30.366Z,8.10
2022-11-28T10:34:30.255Z,8.05
2022-11-28T10:37:23.863Z,8.32
2022-11-28T10:39:50.529Z,9.57
2022-11-28T10:42:34.444Z,10.00
2022-11-28T10:45:03.605Z,9.07
2022-11-28T10:47:45.190Z,9.60
2022-11-28T10:50:46.521Z,6.97
2022-11-28T10:53:31.188Z,8.65
2022-11-28T10:56:11.732Z,8.20
2022-11-28T10:58:59.874Z,6.40
2022-11-28T11:01:36.937Z,6.88
2022-11-28T11:04:04.063Z,16.33
2022-11-28T11:06:41.397Z,8.50
2022-11-28T11:09:14.423Z,7.40
2022-11-28T11:11:53.879Z,7.82
2022-11-28T11:14:33.847Z,8.93
2022-11-28T11:17:00.244Z,7.63
2022-11-28T11:19:30.883Z,7.68
2022-11-28T11:21:59.837Z,5.90
2022-11-28T11:24:26.392Z,5.63
2022-11-28T11:26:52.690Z,6.43
2022-11-28T11:29:24.055Z,5.97
2022-11-28T11:31:53.908Z,6.30
2022-11-28T11:34:22.530Z,6.82
2022-11-28T11:36:50.413Z,7.47
2022-11-28T11:39:23.657Z,8.55
2022-11-28T11:42:09.334Z,7.72
2022-11-28T11:44:36.535Z,7.55
2022-11-28T11:47:06.250Z,8.02
2022-11-28T11:49:44.022Z,12.60
2022-11-28T11:52:13.807Z,12.45
2022-11-28T11:54:54.388Z,11.55
2022-11-28T11:57:34.497Z,9.20
2022-11-28T12:00:11.205Z,8.17
2022-11-28T12:02:46.908Z,10.65
2022-11-28T12:05:19.404Z,9.98
2022-11-28T12:07:58.365Z,10.65
2022-11-28T12:10:28.254Z,12.55
2022-11-28T12:12:54.989Z,11.07
2022-11-28T12:15:55.220Z,9.07
2022-11-28T12:18:37.098Z,13.15
2022-11-28T12:21:32.623Z,13.25
2022-11-28T12:24:15.612Z,11.57
2022-11-28T12:26:50.623Z,11.32
2022-11-28T12:29:46.881Z,12.10
2022-11-28T12:32:41.169Z,13.82
2022-11-28T12:35:22.565Z,17.73
2022-11-28T12:38:10.196Z,13.75
2022-11-28T12:41:02.793Z,15.30
2022-11-28T12:43:50.426Z,17.55
2022-11-28T12:46:49.739Z,17.77
2022-11-28T12:50:00.948Z,14.60
2022-11-28T12:52:41.951Z,15.18
2022-11-28T12:55:34.247Z,13.52
2022-11-28T13:00:34.148Z,9.50
2022-11-28T13:03:34.695Z,11.38
2022-11-28T13:06:32.124Z,14.80
2022-11-28T13:09:03.186Z,13.15
2022-11-28T13:14:21.713Z,14.48
2022-11-28T13:16:52.282Z,12.35
2022-11-28T13:19:28.530Z,10.88
2022-11-28T13:22:09.872Z,11.98
2022-11-28T13:24:36.168Z,12.55
2022-11-28T13:27:41.684Z,12.50
2022-11-28T13:30:19.246Z,11.43
2022-11-28T13:33:24.129Z,10.13
2022-11-28T13:35:52.299Z,13.00
2022-11-28T13:38:36.074Z,12.07
2022-11-28T13:41:35.796Z,10.27
2022-11-28T13:44:15.510Z,13.13
2022-11-28T13:46:45.944Z,12.02
2022-11-28T13:49:21.808Z,15.05
2022-11-28T13:51:48.839Z,12.95
2022-11-28T13:54:19.004Z,10.82
2022-11-28T13:56:47.730Z,10.70
2022-11-28T13:59:23.124Z,13.07
2022-11-28T14:01:57.780Z,11.27
2022-11-28T14:04:25.730Z,10.98
2022-11-28T14:07:00.685Z,11.82
2022-11-28T14:09:26.960Z,10.30
2022-11-28T14:12:16.510Z,10.30
2022-11-28T14:15:04.343Z,8.75
2022-11-28T14:17:40.550Z,9.60
2022-11-28T14:20:24.362Z,10.68
2022-11-28T14:23:22.618Z,10.05
2022-11-28T14:25:51.288Z,9.15
2022-11-28T14:28:27.330Z,6.68
2022-11-28T14:31:10.983Z,10.13
2022-11-28T14:33:42.593Z,9.27
2022-11-28T14:36:24.008Z,9.88
2022-11-28T14:39:10.528Z,10.88
2022-11-28T14:42:04.893Z,8.80
2022-11-28T14:44:52.849Z,10.30
2022-11-28T14:47:54.638Z,8.18
2022-11-28T14:50:20.889Z,7.53
2022-11-28T14:52:47.939Z,7.07
2022-11-28T14:55:23.525Z,7.30
2022-11-28T14:57:55.924Z,7.60
2022-11-28T15:00:31.791Z,9.85
2022-11-28T15:03:26.735Z,7.00
2022-11-28T15:06:02.132Z,7.15
2022-11-28T15:08:39.539Z,6.68
2022-11-28T15:11:14.863Z,10.55
2022-11-28T15:14:04.466Z,7.78
2022-11-28T15:16:32.664Z,8.52
2022-11-28T15:19:06.293Z,17.20
2022-11-28T15:21:43.477Z,24.35
2022-11-28T15:24:30.425Z,14.65
2022-11-28T15:27:07.212Z,11.75
2022-11-28T15:29:35.004Z,12.10
2022-11-28T15:32:04.634Z,12.40
2022-11-28T15:34:33.797Z,13.98
2022-11-28T15:37:03.527Z,14.65
2022-11-28T15:39:39.260Z,16.90
2022-11-28T15:42:24.168Z,17.65
2022-11-28T15:45:10.880Z,21.52
2022-11-28T15:47:38.356Z,17.45
2022-11-28T15:50:17.007Z,20.88
2022-11-28T15:53:01.253Z,20.67
2022-11-28T15:55:31.417Z,20.30
2022-11-28T15:58:20.944Z,19.50
2022-11-28T16:01:12.652Z,24.05
2022-11-28T16:03:56.488Z,16.95
2022-11-28T16:06:26.338Z,18.27
2022-11-28T16:08:56.179Z,25.77
2022-11-28T16:11:25.192Z,26.98
2022-11-28T16:13:53.900Z,21.58
2022-11-28T16:16:24.978Z,36.92
2022-11-28T16:21:28.131Z,37.83
2022-11-28T16:23:54.614Z,31.85
2022-11-28T16:26:32.248Z,33.45
2022-11-28T16:29:19.032Z,27.55
2022-11-28T16:31:45.600Z,31.42
2022-11-28T16:34:13.999Z,30.80
2022-11-28T16:36:45.661Z,37.30
2022-11-28T16:39:14.698Z,35.38
2022-11-28T16:42:04.339Z,31.65
2022-11-28T16:44:30.872Z,38.30
2022-11-28T16:46:58.579Z,40.45
2022-11-28T16:49:38.390Z,36.75
2022-11-28T16:52:49.998Z,43.55
2022-11-28T16:55:40.297Z,56.53
2022-11-28T16:58:16.086Z,39.78
2022-11-28T17:00:45.566Z,44.17
2022-11-28T17:03:57.682Z,45.65
2022-11-28T17:06:36.889Z,42.80
2022-11-28T17:09:09.020Z,39.10
2022-11-28T17:11:37.690Z,40.72
2022-11-28T17:14:10.092Z,53.55
2022-11-28T17:16:38.145Z,38.88
2022-11-28T17:19:05.257Z,61.33
2022-11-28T17:21:41.811Z,47.72
2022-11-28T17:24:18.702Z,48.38
2022-11-28T17:26:45.434Z,48.60
2022-11-28T17:29:14.797Z,61.75
2022-11-28T17:31:42.948Z,44.40
2022-11-28T17:34:21.478Z,55.65
2022-11-28T17:36:47.962Z,50.05
2022-11-28T17:39:14.825Z,52.47
2022-11-28T17:41:42.013Z,71.50
2022-11-28T17:44:17.446Z,70.75
2022-11-28T17:46:43.749Z,90.68
2022-11-28T17:49:10.298Z,53.65
2022-11-28T17:51:36.942Z,81.80
2022-11-28T17:54:03.395Z,54.95
2022-11-28T17:56:31.115Z,64.13
2022-11-28T17:58:57.432Z,72.57
2022-11-28T18:01:27.332Z,71.25
2022-11-28T18:03:53.757Z,71.22
2022-11-28T18:06:21.824Z,74.45
2022-11-28T18:08:50.319Z,71.05
2022-11-28T18:11:18.817Z,83.43
2022-11-28T18:13:45.314Z,86.43
2022-11-28T18:16:14.000Z,83.82
2022-11-28T18:18:40.497Z,77.40
2022-11-28T18:21:08.771Z,84.45
2022-11-28T18:23:38.617Z,149.00
2022-11-28T18:26:13.089Z,86.55
2022-11-28T18:28:40.306Z,88.30
2022-11-28T18:31:25.527Z,91.82
2022-11-28T18:33:57.404Z,89.20
2022-11-28T18:36:28.513Z,91.18
2022-11-28T18:38:59.435Z,138.52
2022-11-28T18:43:56.893Z,79.53
2022-11-28T18:46:23.776Z,76.30
2022-11-28T18:48:50.227Z,74.63
2022-11-28T18:51:20.038Z,77.45
2022-11-28T18:53:47.675Z,97.05
2022-11-28T18:56:14.646Z,99.05
2022-11-28T18:58:46.011Z,84.63
2022-11-28T19:01:13.696Z,87.45
2022-11-28T19:03:41.247Z,121.55
2022-11-28T19:06:10.459Z,95.07
2022-11-28T19:08:37.417Z,114.20
2022-11-28T19:11:09.308Z,122.88
2022-11-28T19:13:39.681Z,100.03
2022-11-28T19:16:11.799Z,96.38
2022-11-28T19:18:39.107Z,129.73
2022-11-28T19:21:06.501Z,119.50
2022-11-28T19:23:32.838Z,111.15
2022-11-28T19:26:10.615Z,114.13
2022-11-28T19:28:38.475Z,92.10
2022-11-28T19:31:09.028Z,98.40
2022-11-28T19:33:35.379Z,86.38
2022-11-28T19:36:06.816Z,120.20
2022-11-28T19:38:34.654Z,140.75
2022-11-28T19:41:07.911Z,99.32
2022-11-28T19:43:35.179Z,105.78
2022-11-28T19:46:02.381Z,112.95
2022-11-28T19:48:30.252Z,90.57
2022-11-28T19:50:57.212Z,93.38
2022-11-28T19:53:24.597Z,91.38
2022-11-28T19:55:51.694Z,96.10
2022-11-28T19:58:18.270Z,102.45
2022-11-28T20:00:44.577Z,94.60
2022-11-28T20:03:10.917Z,96.82
2022-11-28T20:05:40.009Z,99.10
2022-11-28T20:08:07.673Z,99.70
2022-11-28T20:10:42.791Z,82.85
2022-11-28T20:13:09.074Z,65.95
2022-11-28T20:15:36.539Z,84.35
2022-11-28T20:18:02.931Z,82.72
2022-11-28T20:20:29.719Z,93.13
2022-11-28T20:22:57.403Z,92.05
2022-11-28T20:25:23.704Z,89.43
2022-11-28T20:27:50.020Z,86.20
2022-11-28T20:30:16.556Z,102.07
2022-11-28T20:32:43.077Z,88.03
2022-11-28T20:35:09.748Z,93.88
2022-11-28T20:37:37.816Z,111.18
2022-11-28T20:40:04.820Z,107.25
2022-11-28T20:42:39.481Z,92.80
2022-11-28T20:45:06.898Z,105.85
2022-11-28T20:47:34.560Z,81.65
2022-11-28T20:50:00.877Z,90.40
2022-11-28T20:52:27.181Z,90.05
2022-11-28T20:54:53.477Z,84.57
2022-11-28T20:57:21.732Z,85.65
2022-11-28T20:59:48.464Z,104.22
2022-11-28T21:02:15.537Z,103.32
2022-11-28T21:04:41.939Z,78.00
2022-11-28T21:07:08.674Z,90.80
2022-11-28T21:09:35.004Z,82.28
2022-11-28T21:12:01.300Z,85.15
2022-11-28T21:14:28.888Z,89.68
2022-11-28T21:16:56.584Z,82.22
2022-11-28T21:19:23.079Z,72.43
2022-11-28T21:21:49.414Z,75.70
2022-11-28T21:24:15.737Z,76.18
2022-11-28T21:26:46.647Z,78.13
2022-11-28T21:29:16.430Z,91.40
2022-11-28T21:31:44.333Z,73.18
2022-11-28T21:34:14.077Z,77.32
2022-11-28T21:36:40.433Z,77.43
2022-11-28T21:39:06.832Z,71.95
2022-11-28T21:41:33.393Z,70.47
2022-11-28T21:44:00.269Z,71.78
2022-11-28T21:46:27.117Z,76.63
2022-11-28T21:48:53.653Z,77.35
2022-11-28T21:51:22.985Z,85.78
2022-11-28T21:53:49.932Z,76.78
2022-11-28T21:56:16.341Z,71.70
2022-11-28T21:58:42.726Z,84.53
2022-11-28T22:01:11.715Z,78.85
2022-11-28T22:03:39.970Z,72.00
2022-11-28T22:06:18.023Z,75.30
2022-11-28T22:08:45.076Z,75.38
2022-11-28T22:11:13.050Z,71.07
2022-11-28T22:13:41.988Z,76.75
2022-11-28T22:16:10.536Z,68.30
2022-11-28T22:18:36.943Z,74.38
2022-11-28T22:21:22.321Z,65.60
2022-11-28T22:23:52.343Z,78.00
2022-11-28T22:26:18.813Z,61.42
2022-11-28T22:28:50.414Z,64.95
2022-11-28T22:31:19.772Z,73.38
2022-11-28T22:33:46.324Z,70.00
2022-11-28T22:36:15.757Z,71.15
2022-11-28T22:38:43.589Z,67.60
2022-11-28T22:41:15.109Z,63.88
2022-11-28T22:43:41.473Z,58.90
2022-11-28T22:46:08.504Z,71.28
2022-11-28T22:48:35.457Z,69.03
2022-11-28T22:51:14.344Z,74.25
2022-11-28T22:53:41.041Z,75.25
2022-11-28T22:56:10.864Z,66.00
2022-11-28T22:58:42.434Z,66.57
2022-11-28T23:01:13.831Z,72.63
2022-11-28T23:06:15.189Z,61.22
2022-11-28T23:08:42.232Z,61.72
2022-11-28T23:11:11.067Z,62.10
2022-11-28T23:13:38.544Z,66.00
2022-11-28T23:16:12.030Z,68.97
2022-11-28T23:18:38.745Z,60.72
2022-11-28T23:21:05.769Z,69.03
2022-11-28T23:23:33.288Z,65.25
2022-11-28T23:26:08.080Z,59.15
2022-11-28T23:28:35.158Z,67.72
2022-11-28T23:31:29.138Z,56.42
2022-11-28T23:33:56.935Z,64.90
2022-11-28T23:36:26.043Z,74.13
2022-11-28T23:38:55.090Z,53.97
2022-11-28T23:41:21.542Z,63.05
2022-11-28T23:43:47.972Z,60.05
2022-11-28T23:46:15.838Z,64.88
2022-11-28T23:48:43.588Z,65.60
2022-11-28T23:51:12.681Z,62.60
2022-11-28T23:53:40.211Z,61.67
2022-11-28T23:56:12.585Z,70.28
2022-11-28T23:58:39.244Z,59.67
